sensor_id;sensor_type;location;lat;lon;timestamp;pressure;altitude;pressure_sealevel;temperature;humidity
56182;BME280;51963;46.052;14.544;2023-05-27T00:01:34;98646.41;;;16.13;84.29
56182;BME280;51963;46.052;14.544;2023-05-27T00:03:59;98657.69;;;16.15;84.21
56182;BME280;51963;46.052;14.544;2023-05-27T00:06:25;98653.38;;;16.14;84.00
56182;BME280;51963;46.052;14.544;2023-05-27T00:08:51;98650.97;;;16.06;84.74
56182;BME280;51963;46.052;14.544;2023-05-27T00:11:17;98643.41;;;16.03;87.12
56182;BME280;51963;46.052;14.544;2023-05-27T00:13:42;98656.34;;;15.99;87.34
56182;BME280;51963;46.052;14.544;2023-05-27T00:16:08;98651.41;;;16.03;85.84
56182;BME280;51963;46.052;14.544;2023-05-27T00:18:34;98641.38;;;15.98;89.92
56182;BME280;51963;46.052;14.544;2023-05-27T00:21:01;98639.66;;;15.72;89.65
56182;BME280;51963;46.052;14.544;2023-05-27T00:23:27;98652.28;;;15.83;87.20
56182;BME280;51963;46.052;14.544;2023-05-27T00:25:53;98649.50;;;15.71;86.50
56182;BME280;51963;46.052;14.544;2023-05-27T00:28:19;98636.44;;;15.63;90.16
56182;BME280;51963;46.052;14.544;2023-05-27T00:30:45;98643.00;;;15.60;89.94
56182;BME280;51963;46.052;14.544;2023-05-27T00:33:11;98642.63;;;15.57;91.11
56182;BME280;51963;46.052;14.544;2023-05-27T00:35:37;98642.69;;;15.43;88.95
56182;BME280;51963;46.052;14.544;2023-05-27T00:38:04;98634.53;;;15.31;90.27
56182;BME280;51963;46.052;14.544;2023-05-27T00:40:31;98646.22;;;15.30;89.07
56182;BME280;51963;46.052;14.544;2023-05-27T00:42:59;98651.16;;;15.27;89.90
56182;BME280;51963;46.052;14.544;2023-05-27T00:45:25;98647.66;;;15.26;92.67
56182;BME280;51963;46.052;14.544;2023-05-27T00:47:52;98636.88;;;15.14;95.08
56182;BME280;51963;46.052;14.544;2023-05-27T00:50:18;98638.72;;;15.14;92.92
56182;BME280;51963;46.052;14.544;2023-05-27T00:52:44;98638.72;;;15.14;90.39
56182;BME280;51963;46.052;14.544;2023-05-27T00:55:20;98589.06;;;14.87;89.67
56182;BME280;51963;46.052;14.544;2023-05-27T00:57:45;98638.22;;;15.30;90.51
56182;BME280;51963;46.052;14.544;2023-05-27T01:00:12;98619.88;;;15.15;93.73
56182;BME280;51963;46.052;14.544;2023-05-27T01:02:38;98623.94;;;15.18;94.25
56182;BME280;51963;46.052;14.544;2023-05-27T01:05:09;98638.31;;;15.10;93.22
56182;BME280;51963;46.052;14.544;2023-05-27T01:10:40;98634.28;;;14.94;96.50
56182;BME280;51963;46.052;14.544;2023-05-27T01:15:42;98619.97;;;14.81;98.83
56182;BME280;51963;46.052;14.544;2023-05-27T01:18:09;98619.16;;;14.61;100.00
56182;BME280;51963;46.052;14.544;2023-05-27T01:20:35;98619.16;;;14.61;100.00
56182;BME280;51963;46.052;14.544;2023-05-27T01:23:07;98611.03;;;14.49;100.00
56182;BME280;51963;46.052;14.544;2023-05-27T01:25:33;98574.22;;;14.19;100.00
56182;BME280;51963;46.052;14.544;2023-05-27T01:27:59;98610.22;;;14.35;100.00
56182;BME280;51963;46.052;14.544;2023-05-27T01:30:26;98598.97;;;14.19;100.00
56182;BME280;51963;46.052;14.544;2023-05-27T01:32:54;98613.28;;;14.18;100.00
56182;BME280;51963;46.052;14.544;2023-05-27T01:35:22;98597.13;;;14.00;100.00
56182;BME280;51963;46.052;14.544;2023-05-27T01:37:52;98598.56;;;13.96;100.00
56182;BME280;51963;46.052;14.544;2023-05-27T01:40:20;98610.81;;;13.97;100.00
56182;BME280;51963;46.052;14.544;2023-05-27T01:42:47;98611.44;;;13.99;100.00
56182;BME280;51963;46.052;14.544;2023-05-27T01:45:14;98606.94;;;13.92;100.00
56182;BME280;51963;46.052;14.544;2023-05-27T01:47:42;98601.22;;;13.82;100.00
56182;BME280;51963;46.052;14.544;2023-05-27T01:50:09;98599.97;;;13.78;100.00
56182;BME280;51963;46.052;14.544;2023-05-27T01:52:34;98598.16;;;13.78;100.00
56182;BME280;51963;46.052;14.544;2023-05-27T01:55:03;98596.69;;;13.76;100.00
56182;BME280;51963;46.052;14.544;2023-05-27T01:57:30;98588.09;;;13.60;100.00
56182;BME280;51963;46.052;14.544;2023-05-27T01:59:56;98572.13;;;13.47;100.00
56182;BME280;51963;46.052;14.544;2023-05-27T02:02:23;98574.41;;;13.43;100.00
56182;BME280;51963;46.052;14.544;2023-05-27T02:04:49;98590.16;;;13.52;100.00
56182;BME280;51963;46.052;14.544;2023-05-27T02:07:16;98559.88;;;13.46;100.00
56182;BME280;51963;46.052;14.544;2023-05-27T02:09:42;98546.16;;;13.29;100.00
56182;BME280;51963;46.052;14.544;2023-05-27T02:12:10;98576.22;;;13.43;100.00
56182;BME280;51963;46.052;14.544;2023-05-27T02:14:38;98600.75;;;13.45;100.00
56182;BME280;51963;46.052;14.544;2023-05-27T02:17:04;98602.34;;;13.39;100.00
56182;BME280;51963;46.052;14.544;2023-05-27T02:19:30;98588.81;;;13.27;100.00
56182;BME280;51963;46.052;14.544;2023-05-27T02:21:56;98587.34;;;13.25;100.00
56182;BME280;51963;46.052;14.544;2023-05-27T02:24:22;98583.69;;;13.19;100.00
56182;BME280;51963;46.052;14.544;2023-05-27T02:26:48;98586.72;;;13.16;100.00
56182;BME280;51963;46.052;14.544;2023-05-27T02:29:14;98581.03;;;13.19;100.00
56182;BME280;51963;46.052;14.544;2023-05-27T02:31:41;98586.97;;;13.21;100.00
56182;BME280;51963;46.052;14.544;2023-05-27T02:34:06;98585.91;;;13.15;100.00
56182;BME280;51963;46.052;14.544;2023-05-27T02:36:32;98577.09;;;13.01;100.00
56182;BME280;51963;46.052;14.544;2023-05-27T02:38:59;98582.16;;;12.96;100.00
56182;BME280;51963;46.052;14.544;2023-05-27T02:41:25;98581.72;;;12.86;100.00
56182;BME280;51963;46.052;14.544;2023-05-27T02:43:51;98589.28;;;12.89;100.00
56182;BME280;51963;46.052;14.544;2023-05-27T02:46:17;98587.41;;;12.83;100.00
56182;BME280;51963;46.052;14.544;2023-05-27T02:48:43;98574.31;;;12.74;100.00
56182;BME280;51963;46.052;14.544;2023-05-27T02:51:09;98562.28;;;12.79;100.00
56182;BME280;51963;46.052;14.544;2023-05-27T02:53:35;98579.28;;;12.91;100.00
56182;BME280;51963;46.052;14.544;2023-05-27T02:56:02;98588.25;;;12.90;100.00
56182;BME280;51963;46.052;14.544;2023-05-27T02:58:28;98562.88;;;12.74;100.00
56182;BME280;51963;46.052;14.544;2023-05-27T03:00:54;98590.47;;;12.80;100.00
56182;BME280;51963;46.052;14.544;2023-05-27T03:03:20;98588.63;;;12.80;100.00
56182;BME280;51963;46.052;14.544;2023-05-27T03:05:48;98599.22;;;12.73;100.00
56182;BME280;51963;46.052;14.544;2023-05-27T03:08:14;98594.69;;;12.67;100.00
56182;BME280;51963;46.052;14.544;2023-05-27T03:10:40;98589.31;;;12.60;100.00
56182;BME280;51963;46.052;14.544;2023-05-27T03:13:07;98586.09;;;12.65;100.00
56182;BME280;51963;46.052;14.544;2023-05-27T03:15:33;98568.63;;;12.42;100.00
56182;BME280;51963;46.052;14.544;2023-05-27T03:18:00;98586.81;;;12.45;100.00
56182;BME280;51963;46.052;14.544;2023-05-27T03:20:30;98601.16;;;12.58;100.00
56182;BME280;51963;46.052;14.544;2023-05-27T03:22:57;98603.22;;;12.62;100.00
56182;BME280;51963;46.052;14.544;2023-05-27T03:25:23;98592.19;;;12.59;100.00
56182;BME280;51963;46.052;14.544;2023-05-27T03:27:49;98595.84;;;12.58;100.00
56182;BME280;51963;46.052;14.544;2023-05-27T03:30:16;98596.28;;;12.61;100.00
56182;BME280;51963;46.052;14.544;2023-05-27T03:32:48;98599.16;;;12.67;100.00
56182;BME280;51963;46.052;14.544;2023-05-27T03:35:18;98605.72;;;12.71;100.00
56182;BME280;51963;46.052;14.544;2023-05-27T03:37:46;98611.38;;;12.61;100.00
56182;BME280;51963;46.052;14.544;2023-05-27T03:40:12;98602.72;;;12.45;100.00
56182;BME280;51963;46.052;14.544;2023-05-27T03:42:38;98598.22;;;12.46;100.00
56182;BME280;51963;46.052;14.544;2023-05-27T03:45:04;98605.53;;;12.44;100.00
56182;BME280;51963;46.052;14.544;2023-05-27T03:47:30;98606.00;;;12.47;100.00
56182;BME280;51963;46.052;14.544;2023-05-27T03:49:56;98615.44;;;12.57;100.00
56182;BME280;51963;46.052;14.544;2023-05-27T03:52:25;98603.53;;;12.46;100.00
56182;BME280;51963;46.052;14.544;2023-05-27T03:54:50;98613.41;;;12.59;100.00
56182;BME280;51963;46.052;14.544;2023-05-27T03:57:16;98591.78;;;12.62;100.00
56182;BME280;51963;46.052;14.544;2023-05-27T03:59:42;98609.38;;;12.70;100.00
56182;BME280;51963;46.052;14.544;2023-05-27T04:02:08;98615.16;;;12.80;100.00
56182;BME280;51963;46.052;14.544;2023-05-27T04:04:34;98602.47;;;12.75;100.00
56182;BME280;51963;46.052;14.544;2023-05-27T04:07:00;98609.03;;;12.80;100.00
56182;BME280;51963;46.052;14.544;2023-05-27T04:09:26;98609.44;;;12.83;100.00
56182;BME280;51963;46.052;14.544;2023-05-27T04:11:52;98606.56;;;12.78;100.00
56182;BME280;51963;46.052;14.544;2023-05-27T04:14:22;98610.31;;;12.90;100.00
56182;BME280;51963;46.052;14.544;2023-05-27T04:16:50;98601.88;;;12.80;100.00
56182;BME280;51963;46.052;14.544;2023-05-27T04:19:18;98628.25;;;12.88;100.00
56182;BME280;51963;46.052;14.544;2023-05-27T04:21:43;98626.44;;;12.89;100.00
56182;BME280;51963;46.052;14.544;2023-05-27T04:24:10;98626.03;;;12.92;100.00
56182;BME280;51963;46.052;14.544;2023-05-27T04:26:36;98631.75;;;12.96;100.00
56182;BME280;51963;46.052;14.544;2023-05-27T04:29:01;98617.94;;;13.07;100.00
56182;BME280;51963;46.052;14.544;2023-05-27T04:31:28;98611.81;;;13.06;100.00
56182;BME280;51963;46.052;14.544;2023-05-27T04:34:00;98614.69;;;13.12;100.00
56182;BME280;51963;46.052;14.544;2023-05-27T04:36:26;98611.69;;;13.28;100.00
56182;BME280;51963;46.052;14.544;2023-05-27T04:39:00;98594.13;;;13.27;100.00
56182;BME280;51963;46.052;14.544;2023-05-27T04:41:28;98616.25;;;13.41;100.00
56182;BME280;51963;46.052;14.544;2023-05-27T04:44:18;98627.72;;;13.48;100.00
56182;BME280;51963;46.052;14.544;2023-05-27T04:46:47;98629.81;;;13.60;100.00
56182;BME280;51963;46.052;14.544;2023-05-27T04:49:13;98617.97;;;13.69;100.00
56182;BME280;51963;46.052;14.544;2023-05-27T04:51:39;98622.66;;;13.74;100.00
56182;BME280;51963;46.052;14.544;2023-05-27T04:54:06;98614.28;;;13.77;100.00
56182;BME280;51963;46.052;14.544;2023-05-27T04:56:34;98622.06;;;13.85;100.00
56182;BME280;51963;46.052;14.544;2023-05-27T04:58:59;98622.69;;;13.94;100.00
56182;BME280;51963;46.052;14.544;2023-05-27T05:01:31;98636.00;;;14.07;100.00
56182;BME280;51963;46.052;14.544;2023-05-27T05:04:18;98611.66;;;14.17;100.00
56182;BME280;51963;46.052;14.544;2023-05-27T05:06:56;98593.88;;;14.04;100.00
56182;BME280;51963;46.052;14.544;2023-05-27T05:09:24;98617.97;;;14.30;100.00
56182;BME280;51963;46.052;14.544;2023-05-27T05:11:50;98612.28;;;14.26;100.00
56182;BME280;51963;46.052;14.544;2023-05-27T05:14:16;98624.53;;;14.41;100.00
56182;BME280;51963;46.052;14.544;2023-05-27T05:16:42;98624.94;;;14.44;100.00
56182;BME280;51963;46.052;14.544;2023-05-27T05:19:08;98595.88;;;14.36;100.00
56182;BME280;51963;46.052;14.544;2023-05-27T05:21:36;98590.75;;;14.48;100.00
56182;BME280;51963;46.052;14.544;2023-05-27T05:24:04;98622.03;;;14.66;100.00
56182;BME280;51963;46.052;14.544;2023-05-27T05:26:30;98628.19;;;14.80;100.00
56182;BME280;51963;46.052;14.544;2023-05-27T05:28:58;98631.00;;;14.92;100.00
56182;BME280;51963;46.052;14.544;2023-05-27T05:31:24;98618.53;;;14.92;100.00
56182;BME280;51963;46.052;14.544;2023-05-27T05:33:50;98608.06;;;14.91;100.00
56182;BME280;51963;46.052;14.544;2023-05-27T05:36:16;98600.88;;;15.05;100.00
56182;BME280;51963;46.052;14.544;2023-05-27T05:38:52;98626.53;;;15.31;100.00
56182;BME280;51963;46.052;14.544;2023-05-27T05:41:18;98622.78;;;15.46;100.00
56182;BME280;51963;46.052;14.544;2023-05-27T05:43:44;98624.41;;;15.53;100.00
56182;BME280;51963;46.052;14.544;2023-05-27T05:46:11;98617.22;;;15.54;100.00
56182;BME280;51963;46.052;14.544;2023-05-27T05:48:36;98633.53;;;15.64;100.00
56182;BME280;51963;46.052;14.544;2023-05-27T05:51:03;98635.97;;;15.73;100.00
56182;BME280;51963;46.052;14.544;2023-05-27T05:53:30;98628.72;;;15.80;100.00
56182;BME280;51963;46.052;14.544;2023-05-27T05:55:57;98634.25;;;15.85;100.00
56182;BME280;51963;46.052;14.544;2023-05-27T05:58:24;98630.97;;;15.90;100.00
56182;BME280;51963;46.052;14.544;2023-05-27T06:00:50;98628.88;;;15.98;100.00
56182;BME280;51963;46.052;14.544;2023-05-27T06:03:29;98632.47;;;16.11;100.00
56182;BME280;51963;46.052;14.544;2023-05-27T06:05:57;98629.09;;;16.22;100.00
56182;BME280;51963;46.052;14.544;2023-05-27T06:08:24;98633.13;;;16.32;100.00
56182;BME280;51963;46.052;14.544;2023-05-27T06:10:59;98623.22;;;16.39;100.00
56182;BME280;51963;46.052;14.544;2023-05-27T06:13:27;98645.31;;;16.46;100.00
56182;BME280;51963;46.052;14.544;2023-05-27T06:15:55;98610.03;;;16.44;100.00
56182;BME280;51963;46.052;14.544;2023-05-27T06:18:22;98635.25;;;16.67;98.79
56182;BME280;51963;46.052;14.544;2023-05-27T06:20:48;98617.00;;;16.64;98.28
56182;BME280;51963;46.052;14.544;2023-05-27T06:23:14;98626.97;;;16.75;97.68
56182;BME280;51963;46.052;14.544;2023-05-27T06:26:02;98626.97;;;16.94;98.10
56182;BME280;51963;46.052;14.544;2023-05-27T06:28:33;98644.84;;;17.12;94.68
56182;BME280;51963;46.052;14.544;2023-05-27T06:30:59;98627.72;;;17.20;94.63
56182;BME280;51963;46.052;14.544;2023-05-27T06:33:25;98632.00;;;17.39;95.05
56182;BME280;51963;46.052;14.544;2023-05-27T06:35:51;98629.41;;;17.33;89.59
56182;BME280;51963;46.052;14.544;2023-05-27T06:38:17;98622.44;;;17.62;88.39
56182;BME280;51963;46.052;14.544;2023-05-27T06:40:47;98625.81;;;17.69;88.28
56182;BME280;51963;46.052;14.544;2023-05-27T06:43:13;98632.16;;;17.87;87.64
56182;BME280;51963;46.052;14.544;2023-05-27T06:45:59;98626.34;;;17.90;86.48
56182;BME280;51963;46.052;14.544;2023-05-27T06:48:37;98622.00;;;18.08;86.43
56182;BME280;51963;46.052;14.544;2023-05-27T06:51:05;98625.63;;;18.25;85.69
56182;BME280;51963;46.052;14.544;2023-05-27T06:53:30;98627.00;;;18.28;85.43
56182;BME280;51963;46.052;14.544;2023-05-27T06:56:02;98617.81;;;18.59;83.99
56182;BME280;51963;46.052;14.544;2023-05-27T06:58:47;98623.22;;;19.12;81.18
56182;BME280;51963;46.052;14.544;2023-05-27T07:01:15;98616.22;;;19.52;79.11
56182;BME280;51963;46.052;14.544;2023-05-27T07:04:05;98616.22;;;19.98;75.82
56182;BME280;51963;46.052;14.544;2023-05-27T07:06:52;98612.47;;;19.99;73.97
56182;BME280;51963;46.052;14.544;2023-05-27T07:09:18;98613.94;;;20.41;73.86
56182;BME280;51963;46.052;14.544;2023-05-27T07:11:45;98616.78;;;20.74;73.52
56182;BME280;51963;46.052;14.544;2023-05-27T07:14:16;98613.13;;;20.80;70.67
56182;BME280;51963;46.052;14.544;2023-05-27T07:16:42;98613.69;;;20.82;71.59
56182;BME280;51963;46.052;14.544;2023-05-27T07:19:09;98612.09;;;21.25;71.38
56182;BME280;51963;46.052;14.544;2023-05-27T07:21:46;98614.59;;;20.88;69.19
56182;BME280;51963;46.052;14.544;2023-05-27T07:24:24;98615.34;;;21.55;68.04
56182;BME280;51963;46.052;14.544;2023-05-27T07:26:55;98619.78;;;21.94;66.89
56182;BME280;51963;46.052;14.544;2023-05-27T07:29:28;98597.34;;;22.16;62.46
56182;BME280;51963;46.052;14.544;2023-05-27T07:31:54;98608.13;;;22.21;63.39
56182;BME280;51963;46.052;14.544;2023-05-27T07:34:24;98595.25;;;22.28;62.31
56182;BME280;51963;46.052;14.544;2023-05-27T07:36:50;98606.53;;;22.63;60.62
56182;BME280;51963;46.052;14.544;2023-05-27T07:39:16;98583.47;;;22.39;63.34
56182;BME280;51963;46.052;14.544;2023-05-27T07:41:43;98596.69;;;22.84;59.06
56182;BME280;51963;46.052;14.544;2023-05-27T07:44:12;98606.69;;;22.94;59.33
56182;BME280;51963;46.052;14.544;2023-05-27T07:46:38;98594.38;;;22.55;57.71
56182;BME280;51963;46.052;14.544;2023-05-27T07:49:07;98584.41;;;22.55;58.36
56182;BME280;51963;46.052;14.544;2023-05-27T07:51:39;98592.81;;;23.33;57.61
56182;BME280;51963;46.052;14.544;2023-05-27T07:54:06;98568.31;;;23.76;53.68
56182;BME280;51963;46.052;14.544;2023-05-27T07:56:32;98584.47;;;23.45;56.65
56182;BME280;51963;46.052;14.544;2023-05-27T07:59:01;98586.41;;;23.86;54.86
56182;BME280;51963;46.052;14.544;2023-05-27T08:01:28;98574.78;;;23.59;52.76
56182;BME280;51963;46.052;14.544;2023-05-27T08:03:58;98563.47;;;23.78;51.39
56182;BME280;51963;46.052;14.544;2023-05-27T08:06:40;98579.94;;;24.23;51.85
56182;BME280;51963;46.052;14.544;2023-05-27T08:09:29;98563.09;;;24.63;49.54
56182;BME280;51963;46.052;14.544;2023-05-27T08:12:17;98573.72;;;23.81;50.98
56182;BME280;51963;46.052;14.544;2023-05-27T08:15:08;98558.91;;;24.10;49.39
56182;BME280;51963;46.052;14.544;2023-05-27T08:17:59;98568.41;;;24.88;48.58
56182;BME280;51963;46.052;14.544;2023-05-27T08:20:43;98569.25;;;24.84;46.10
56182;BME280;51963;46.052;14.544;2023-05-27T08:23:35;98563.88;;;25.29;46.78
56182;BME280;51963;46.052;14.544;2023-05-27T08:26:19;98565.34;;;25.05;44.25
56182;BME280;51963;46.052;14.544;2023-05-27T08:29:12;98560.84;;;24.90;43.97
56182;BME280;51963;46.052;14.544;2023-05-27T08:31:56;98528.28;;;24.40;44.28
56182;BME280;51963;46.052;14.544;2023-05-27T08:34:23;98547.28;;;25.01;42.65
56182;BME280;51963;46.052;14.544;2023-05-27T08:36:49;98559.06;;;24.44;44.41
56182;BME280;51963;46.052;14.544;2023-05-27T08:39:15;98558.38;;;24.94;42.67
56182;BME280;51963;46.052;14.544;2023-05-27T08:41:57;98569.06;;;25.20;41.07
56182;BME280;51963;46.052;14.544;2023-05-27T08:44:29;98557.19;;;25.16;43.44
56182;BME280;51963;46.052;14.544;2023-05-27T08:47:07;98561.06;;;24.99;42.65
56182;BME280;51963;46.052;14.544;2023-05-27T08:49:34;98574.56;;;25.04;41.57
56182;BME280;51963;46.052;14.544;2023-05-27T08:52:01;98562.44;;;24.97;42.64
56182;BME280;51963;46.052;14.544;2023-05-27T08:54:29;98574.16;;;25.72;40.96
56182;BME280;51963;46.052;14.544;2023-05-27T08:56:59;98548.63;;;25.43;41.93
56182;BME280;51963;46.052;14.544;2023-05-27T08:59:26;98572.16;;;25.48;41.11
56182;BME280;51963;46.052;14.544;2023-05-27T09:01:54;98565.66;;;26.13;39.09
56182;BME280;51963;46.052;14.544;2023-05-27T09:04:20;98569.75;;;25.46;38.91
56182;BME280;51963;46.052;14.544;2023-05-27T09:06:46;98574.75;;;25.63;40.01
56182;BME280;51963;46.052;14.544;2023-05-27T09:09:12;98564.41;;;24.70;41.24
56182;BME280;51963;46.052;14.544;2023-05-27T09:11:43;98562.16;;;25.48;40.88
56182;BME280;51963;46.052;14.544;2023-05-27T09:14:28;98562.78;;;26.04;39.63
56182;BME280;51963;46.052;14.544;2023-05-27T09:17:09;98560.22;;;26.48;40.72
56182;BME280;51963;46.052;14.544;2023-05-27T09:19:35;98571.00;;;25.94;38.03
56182;BME280;51963;46.052;14.544;2023-05-27T09:22:00;98561.81;;;26.73;36.22
56182;BME280;51963;46.052;14.544;2023-05-27T09:24:27;98561.66;;;27.08;34.81
56182;BME280;51963;46.052;14.544;2023-05-27T09:26:53;98539.09;;;26.45;35.72
56182;BME280;51963;46.052;14.544;2023-05-27T09:29:20;98556.41;;;26.73;35.26
56182;BME280;51963;46.052;14.544;2023-05-27T09:31:46;98561.25;;;26.76;36.54
56182;BME280;51963;46.052;14.544;2023-05-27T09:34:15;98561.31;;;26.17;37.77
56182;BME280;51963;46.052;14.544;2023-05-27T09:36:46;98562.00;;;26.33;37.24
56182;BME280;51963;46.052;14.544;2023-05-27T09:39:18;98540.63;;;25.68;37.75
56182;BME280;51963;46.052;14.544;2023-05-27T09:41:52;98567.41;;;26.33;37.51
56182;BME280;51963;46.052;14.544;2023-05-27T09:44:19;98556.31;;;26.00;36.03
56182;BME280;51963;46.052;14.544;2023-05-27T09:46:45;98556.50;;;26.09;36.00
56182;BME280;51963;46.052;14.544;2023-05-27T09:49:18;98559.97;;;25.85;36.52
56182;BME280;51963;46.052;14.544;2023-05-27T09:51:47;98543.41;;;26.46;36.50
56182;BME280;51963;46.052;14.544;2023-05-27T09:54:18;98552.94;;;25.84;38.66
56182;BME280;51963;46.052;14.544;2023-05-27T09:56:49;98549.31;;;25.65;36.82
56182;BME280;51963;46.052;14.544;2023-05-27T09:59:16;98550.59;;;26.02;38.12
56182;BME280;51963;46.052;14.544;2023-05-27T10:01:47;98541.16;;;26.77;35.67
56182;BME280;51963;46.052;14.544;2023-05-27T10:04:17;98550.38;;;27.20;35.37
56182;BME280;51963;46.052;14.544;2023-05-27T10:06:44;98538.78;;;26.95;36.10
56182;BME280;51963;46.052;14.544;2023-05-27T10:09:16;98523.16;;;26.62;33.48
56182;BME280;51963;46.052;14.544;2023-05-27T10:11:43;98543.63;;;26.98;35.74
56182;BME280;51963;46.052;14.544;2023-05-27T10:14:12;98536.81;;;27.20;35.38
56182;BME280;51963;46.052;14.544;2023-05-27T10:16:38;98532.78;;;26.98;35.25
56182;BME280;51963;46.052;14.544;2023-05-27T10:19:09;98551.69;;;27.22;36.41
56182;BME280;51963;46.052;14.544;2023-05-27T10:21:42;98546.84;;;27.91;32.36
56182;BME280;51963;46.052;14.544;2023-05-27T10:24:10;98538.16;;;28.22;32.35
56182;BME280;51963;46.052;14.544;2023-05-27T10:26:39;98544.03;;;28.43;34.10
56182;BME280;51963;46.052;14.544;2023-05-27T10:29:14;98537.88;;;28.37;34.07
56182;BME280;51963;46.052;14.544;2023-05-27T10:31:52;98540.31;;;27.59;33.62
56182;BME280;51963;46.052;14.544;2023-05-27T10:34:18;98542.63;;;28.32;33.86
56182;BME280;51963;46.052;14.544;2023-05-27T10:36:45;98543.81;;;28.25;33.22
56182;BME280;51963;46.052;14.544;2023-05-27T10:41:54;98530.81;;;28.64;32.60
56182;BME280;51963;46.052;14.544;2023-05-27T10:44:31;98531.19;;;28.02;35.99
56182;BME280;51963;46.052;14.544;2023-05-27T10:47:02;98527.50;;;28.39;32.11
56182;BME280;51963;46.052;14.544;2023-05-27T10:49:29;98542.41;;;28.98;31.51
56182;BME280;51963;46.052;14.544;2023-05-27T10:52:11;98531.75;;;28.32;31.62
56182;BME280;51963;46.052;14.544;2023-05-27T10:57:07;98523.50;;;28.37;32.20
56182;BME280;51963;46.052;14.544;2023-05-27T10:59:47;98518.25;;;29.19;31.22
56182;BME280;51963;46.052;14.544;2023-05-27T11:02:13;98533.81;;;29.64;31.52
56182;BME280;51963;46.052;14.544;2023-05-27T11:04:39;98534.75;;;29.60;29.89
56182;BME280;51963;46.052;14.544;2023-05-27T11:07:07;98534.06;;;28.80;29.91
56182;BME280;51963;46.052;14.544;2023-05-27T11:09:51;98534.69;;;29.74;29.41
56182;BME280;51963;46.052;14.544;2023-05-27T11:12:18;98529.81;;;29.25;30.29
56182;BME280;51963;46.052;14.544;2023-05-27T11:14:44;98521.16;;;29.23;30.79
56182;BME280;51963;46.052;14.544;2023-05-27T11:17:11;98523.84;;;29.00;30.59
56182;BME280;51963;46.052;14.544;2023-05-27T11:19:41;98523.47;;;28.93;30.37
56182;BME280;51963;46.052;14.544;2023-05-27T11:22:08;98510.38;;;29.18;30.09
56182;BME280;51963;46.052;14.544;2023-05-27T11:24:35;98519.38;;;29.86;28.43
56182;BME280;51963;46.052;14.544;2023-05-27T11:27:12;98520.84;;;31.70;25.97
56182;BME280;51963;46.052;14.544;2023-05-27T11:29:38;98517.34;;;31.70;25.73
56182;BME280;51963;46.052;14.544;2023-05-27T11:32:07;98521.88;;;31.48;25.26
56182;BME280;51963;46.052;14.544;2023-05-27T11:34:38;98512.56;;;30.47;25.56
56182;BME280;51963;46.052;14.544;2023-05-27T11:37:06;98508.97;;;29.89;27.17
56182;BME280;51963;46.052;14.544;2023-05-27T11:39:32;98502.28;;;31.28;25.62
56182;BME280;51963;46.052;14.544;2023-05-27T11:41:58;98512.16;;;30.63;24.99
56182;BME280;51963;46.052;14.544;2023-05-27T11:44:25;98499.88;;;31.27;25.32
56182;BME280;51963;46.052;14.544;2023-05-27T11:46:58;98499.88;;;30.34;24.88
56182;BME280;51963;46.052;14.544;2023-05-27T11:49:27;98509.56;;;30.49;25.11
56182;BME280;51963;46.052;14.544;2023-05-27T11:51:57;98484.59;;;30.91;25.42
56182;BME280;51963;46.052;14.544;2023-05-27T11:54:28;98497.56;;;30.76;25.14
56182;BME280;51963;46.052;14.544;2023-05-27T11:56:55;98505.44;;;31.74;24.30
56182;BME280;51963;46.052;14.544;2023-05-27T11:59:22;98502.84;;;30.64;24.32
56182;BME280;51963;46.052;14.544;2023-05-27T12:01:50;98494.72;;;31.34;24.60
56182;BME280;51963;46.052;14.544;2023-05-27T12:04:17;98492.31;;;30.97;25.38
56182;BME280;51963;46.052;14.544;2023-05-27T12:06:44;98490.88;;;31.17;24.28
56182;BME280;51963;46.052;14.544;2023-05-27T12:09:10;98470.59;;;30.66;25.31
56182;BME280;51963;46.052;14.544;2023-05-27T12:11:38;98495.63;;;31.91;23.97
56182;BME280;51963;46.052;14.544;2023-05-27T12:14:04;98485.25;;;31.23;24.92
56182;BME280;51963;46.052;14.544;2023-05-27T12:16:30;98485.53;;;30.77;24.48
56182;BME280;51963;46.052;14.544;2023-05-27T12:18:57;98464.69;;;30.81;24.79
56182;BME280;51963;46.052;14.544;2023-05-27T12:21:23;98478.31;;;31.16;25.04
56182;BME280;51963;46.052;14.544;2023-05-27T12:23:51;98466.84;;;31.67;24.37
56182;BME280;51963;46.052;14.544;2023-05-27T12:26:18;98469.03;;;32.39;24.57
56182;BME280;51963;46.052;14.544;2023-05-27T12:28:44;98471.19;;;31.68;24.78
56182;BME280;51963;46.052;14.544;2023-05-27T12:31:10;98474.25;;;31.75;24.49
56182;BME280;51963;46.052;14.544;2023-05-27T12:33:36;98464.06;;;31.28;24.38
56182;BME280;51963;46.052;14.544;2023-05-27T12:36:03;98468.63;;;30.57;25.38
56182;BME280;51963;46.052;14.544;2023-05-27T12:38:31;98461.94;;;31.34;24.84
56182;BME280;51963;46.052;14.544;2023-05-27T12:40:57;98467.75;;;31.98;24.80
56182;BME280;51963;46.052;14.544;2023-05-27T12:43:23;98459.56;;;32.37;24.55
56182;BME280;51963;46.052;14.544;2023-05-27T12:45:49;98473.78;;;32.51;24.55
56182;BME280;51963;46.052;14.544;2023-05-27T12:48:16;98469.50;;;30.76;26.18
56182;BME280;51963;46.052;14.544;2023-05-27T12:50:43;98466.13;;;31.05;25.38
56182;BME280;51963;46.052;14.544;2023-05-27T12:53:08;98443.50;;;30.69;25.71
56182;BME280;51963;46.052;14.544;2023-05-27T12:55:35;98461.69;;;29.93;27.56
56182;BME280;51963;46.052;14.544;2023-05-27T12:58:01;98458.44;;;31.25;25.36
56182;BME280;51963;46.052;14.544;2023-05-27T13:00:28;98444.84;;;28.91;27.48
56182;BME280;51963;46.052;14.544;2023-05-27T13:02:53;98447.66;;;30.09;26.81
56182;BME280;51963;46.052;14.544;2023-05-27T13:05:19;98449.34;;;32.16;25.07